createdAt,value
2017-11-07T00:00:00.526Z,0.00
2017-11-07T00:01:00.577Z,0.00
2017-11-07T00:02:53.570Z,0.00
2017-11-07T00:03:53.608Z,0.00
2017-11-07T00:05:46.608Z,0.00
2017-11-07T00:06:46.642Z,0.00
2017-11-07T00:08:39.614Z,0.00
2017-11-07T00:09:39.673Z,0.00
2017-11-07T00:11:32.670Z,0.00
2017-11-07T00:12:32.706Z,0.00
2017-11-07T00:14:25.686Z,0.00
2017-11-07T00:15:25.745Z,0.00
2017-11-07T00:17:18.735Z,0.00
2017-11-07T00:18:18.769Z,0.00
2017-11-07T00:20:11.753Z,0.00
2017-11-07T00:21:11.809Z,0.00
2017-11-07T00:23:04.808Z,0.00
2017-11-07T00:24:04.841Z,0.00
2017-11-07T00:25:57.838Z,0.00
2017-11-07T00:26:57.888Z,0.00
2017-11-07T00:28:50.846Z,0.00
2017-11-07T00:29:50.904Z,0.00
2017-11-07T00:31:43.902Z,0.00
2017-11-07T00:32:43.936Z,0.00
2017-11-07T00:34:36.921Z,0.00
2017-11-07T00:35:36.982Z,0.00
2017-11-07T00:37:29.976Z,0.00
2017-11-07T00:38:30.014Z,0.00
2017-11-07T00:40:22.987Z,0.00
2017-11-07T00:41:23.043Z,0.00
2017-11-07T00:43:16.038Z,0.00
2017-11-07T00:44:16.074Z,0.00
2017-11-07T00:46:09.076Z,0.00
2017-11-07T00:47:09.112Z,0.00
2017-11-07T00:49:02.093Z,0.00
2017-11-07T00:50:02.149Z,0.00
2017-11-07T00:51:55.146Z,0.00
2017-11-07T00:52:55.180Z,0.00
2017-11-07T00:54:48.156Z,0.00
2017-11-07T00:55:48.213Z,0.00
2017-11-07T00:57:41.225Z,0.00
2017-11-07T00:58:41.244Z,0.00
2017-11-07T01:00:34.224Z,0.00
2017-11-07T01:01:34.275Z,0.00
2017-11-07T01:03:27.270Z,0.00
2017-11-07T01:04:27.312Z,0.00
2017-11-07T01:06:20.302Z,0.00
2017-11-07T01:07:20.341Z,0.00
2017-11-07T01:09:13.313Z,0.00
2017-11-07T01:10:13.370Z,0.00
2017-11-07T01:12:06.364Z,0.00
2017-11-07T01:13:06.399Z,0.00
2017-11-07T01:14:59.374Z,0.00
2017-11-07T01:15:59.429Z,0.00
2017-11-07T01:17:52.436Z,0.00
2017-11-07T01:18:52.463Z,0.00
2017-11-07T01:20:45.438Z,0.00
2017-11-07T01:21:45.494Z,0.00
2017-11-07T01:23:38.492Z,0.00
2017-11-07T01:24:38.535Z,0.00
2017-11-07T01:26:31.523Z,0.00
2017-11-07T01:27:31.558Z,0.00
2017-11-07T01:29:24.534Z,0.00
2017-11-07T01:30:24.587Z,0.00
2017-11-07T01:32:17.593Z,0.00
2017-11-07T01:33:17.629Z,0.00
2017-11-07T01:35:10.612Z,0.00
2017-11-07T01:36:10.664Z,0.00
2017-11-07T01:38:03.661Z,0.00
2017-11-07T01:39:03.694Z,0.00
2017-11-07T01:40:56.669Z,0.00
2017-11-07T01:41:56.725Z,0.00
2017-11-07T01:43:49.721Z,0.00
2017-11-07T01:44:49.758Z,0.00
2017-11-07T01:46:42.756Z,0.00
2017-11-07T01:47:42.789Z,0.00
2017-11-07T01:49:35.767Z,0.00
2017-11-07T01:50:35.822Z,0.00
2017-11-07T01:52:28.816Z,0.00
2017-11-07T01:53:28.857Z,0.00
2017-11-07T01:55:21.829Z,0.00
2017-11-07T01:56:21.886Z,0.00
2017-11-07T01:58:14.883Z,0.00
2017-11-07T01:59:14.922Z,0.00
2017-11-07T02:01:07.923Z,0.00
2017-11-07T02:02:07.950Z,0.00
2017-11-07T02:04:00.933Z,0.00
2017-11-07T02:05:00.980Z,0.00
2017-11-07T02:06:53.980Z,0.00
2017-11-07T02:07:54.013Z,0.00
2017-11-07T02:09:47.000Z,0.00
2017-11-07T02:10:47.054Z,0.00
2017-11-07T02:12:40.049Z,0.00
2017-11-07T02:13:40.083Z,0.00
2017-11-07T02:15:33.058Z,0.00
2017-11-07T02:16:33.114Z,0.00
2017-11-07T02:18:26.114Z,0.00
2017-11-07T02:19:26.152Z,0.00
2017-11-07T02:21:19.160Z,0.00
2017-11-07T02:22:19.187Z,0.00
2017-11-07T02:24:12.162Z,0.00
2017-11-07T02:25:12.218Z,0.00
2017-11-07T02:27:05.217Z,0.00
2017-11-07T02:28:05.246Z,0.00
2017-11-07T02:29:58.221Z,0.00
2017-11-07T02:30:58.280Z,0.00
2017-11-07T02:32:51.278Z,0.00
2017-11-07T02:33:51.314Z,0.00
2017-11-07T02:35:44.287Z,0.00
2017-11-07T02:36:44.347Z,0.00
2017-11-07T02:38:37.338Z,0.00
2017-11-07T02:39:37.372Z,0.00
2017-11-07T02:41:30.370Z,0.00
2017-11-07T02:42:30.404Z,0.00
2017-11-07T02:44:23.384Z,0.00
2017-11-07T02:45:23.441Z,0.00
2017-11-07T02:47:16.949Z,0.00
2017-11-07T02:48:16.980Z,0.00
2017-11-07T02:50:09.954Z,0.00
2017-11-07T02:51:10.009Z,0.00
2017-11-07T02:53:03.010Z,0.00
2017-11-07T02:54:03.052Z,0.00
2017-11-07T02:55:56.028Z,0.00
2017-11-07T02:56:56.080Z,0.00
2017-11-07T02:58:49.075Z,0.00
2017-11-07T02:59:49.109Z,0.00
2017-11-07T03:01:42.103Z,0.00
2017-11-07T03:02:42.139Z,0.00
2017-11-07T03:04:35.113Z,0.00
2017-11-07T03:05:35.169Z,0.00
2017-11-07T03:07:28.175Z,0.00
2017-11-07T03:08:28.205Z,0.00
2017-11-07T03:10:21.178Z,0.00
2017-11-07T03:11:21.234Z,0.00
2017-11-07T03:13:14.231Z,0.00
2017-11-07T03:14:14.265Z,0.00
2017-11-07T03:16:07.237Z,0.00
2017-11-07T03:17:07.298Z,0.00
2017-11-07T03:19:00.296Z,0.00
2017-11-07T03:20:00.330Z,0.00
2017-11-07T03:21:53.327Z,0.00
2017-11-07T03:22:53.361Z,0.00
2017-11-07T03:24:46.334Z,0.00
2017-11-07T03:25:46.393Z,0.00
2017-11-07T03:27:39.386Z,0.00
2017-11-07T03:28:39.420Z,0.00
2017-11-07T03:30:32.409Z,0.00
2017-11-07T03:31:32.461Z,0.00
2017-11-07T03:33:25.458Z,0.00
2017-11-07T03:34:25.493Z,0.00
2017-11-07T03:36:18.467Z,0.00
2017-11-07T03:37:18.523Z,0.00
2017-11-07T03:39:11.529Z,0.00
2017-11-07T03:40:11.561Z,0.00
2017-11-07T03:42:04.551Z,0.00
2017-11-07T03:43:04.584Z,0.00
2017-11-07T03:44:57.562Z,0.00
2017-11-07T03:45:57.614Z,0.00
2017-11-07T03:47:51.120Z,0.00
2017-11-07T03:48:51.153Z,0.00
2017-11-07T03:50:44.127Z,0.00
2017-11-07T03:51:44.183Z,0.00
2017-11-07T03:53:37.183Z,0.00
2017-11-07T03:54:37.219Z,0.00
2017-11-07T03:56:30.193Z,0.00
2017-11-07T03:57:30.247Z,0.00
2017-11-07T03:59:23.244Z,0.00
2017-11-07T04:00:23.277Z,0.00
2017-11-07T04:02:16.279Z,0.00
2017-11-07T04:03:16.314Z,0.00
2017-11-07T04:05:09.298Z,0.00
2017-11-07T04:06:09.350Z,0.00
2017-11-07T04:08:02.343Z,0.00
2017-11-07T04:09:02.378Z,0.00
2017-11-07T04:10:55.351Z,0.00
2017-11-07T04:11:55.409Z,0.00
2017-11-07T04:13:48.415Z,0.00
2017-11-07T04:14:48.440Z,0.00
2017-11-07T04:16:41.425Z,0.00
2017-11-07T04:17:41.481Z,0.00
2017-11-07T04:19:34.483Z,0.00
2017-11-07T04:20:34.516Z,0.00
2017-11-07T04:22:27.515Z,0.00
2017-11-07T04:23:27.546Z,0.00
2017-11-07T04:25:20.520Z,0.00
2017-11-07T04:26:20.577Z,0.00
2017-11-07T04:28:13.574Z,0.00
2017-11-07T04:29:13.610Z,0.00
2017-11-07T04:31:06.584Z,0.00
2017-11-07T04:32:06.638Z,0.00
2017-11-07T04:33:59.634Z,0.00
2017-11-07T04:34:59.668Z,0.00
2017-11-07T04:36:52.645Z,0.00
2017-11-07T04:37:52.697Z,0.00
2017-11-07T04:39:45.704Z,0.00
2017-11-07T04:40:45.741Z,0.00
2017-11-07T04:42:38.735Z,0.00
2017-11-07T04:43:38.769Z,0.00
2017-11-07T04:45:31.769Z,0.00
2017-11-07T04:46:31.803Z,0.00
2017-11-07T04:48:25.312Z,0.00
2017-11-07T04:49:25.337Z,0.00
2017-11-07T04:51:18.316Z,0.00
2017-11-07T04:52:18.370Z,0.00
2017-11-07T04:54:11.368Z,0.00
2017-11-07T04:55:11.402Z,0.00
2017-11-07T04:57:04.379Z,0.00
2017-11-07T04:58:04.433Z,0.00
2017-11-07T04:59:57.437Z,0.00
2017-11-07T05:00:57.463Z,0.00
2017-11-07T05:02:50.460Z,0.00
2017-11-07T05:03:50.495Z,0.00
2017-11-07T05:05:43.470Z,0.00
2017-11-07T05:06:43.523Z,0.00
2017-11-07T05:08:36.523Z,0.00
2017-11-07T05:09:36.553Z,0.00
2017-11-07T05:11:29.528Z,0.00
2017-11-07T05:12:29.584Z,0.00
2017-11-07T05:14:22.588Z,0.00
2017-11-07T05:15:22.624Z,0.00
2017-11-07T05:17:15.605Z,0.00
2017-11-07T05:18:15.655Z,0.00
2017-11-07T05:20:08.650Z,0.00
2017-11-07T05:21:08.683Z,0.00
2017-11-07T05:23:01.680Z,0.00
2017-11-07T05:24:01.713Z,0.00
2017-11-07T05:25:54.689Z,0.00
2017-11-07T05:26:54.745Z,0.00
2017-11-07T05:28:47.742Z,0.00
2017-11-07T05:29:47.773Z,0.00
2017-11-07T05:31:40.745Z,0.00
2017-11-07T05:32:40.801Z,0.00
2017-11-07T05:34:33.796Z,0.00
2017-11-07T05:35:33.830Z,0.00
2017-11-07T05:37:26.802Z,0.00
2017-11-07T05:38:26.858Z,0.00
2017-11-07T05:40:19.853Z,0.00
2017-11-07T05:41:19.905Z,0.00
2017-11-07T05:43:12.906Z,0.00
2017-11-07T05:44:12.921Z,0.00
2017-11-07T05:46:05.905Z,0.00
2017-11-07T05:47:05.958Z,0.00
2017-11-07T05:48:58.975Z,0.00
2017-11-07T05:49:58.996Z,0.00
2017-11-07T05:51:51.978Z,0.00
2017-11-07T05:52:52.023Z,0.00
2017-11-07T05:54:45.017Z,0.00
2017-11-07T05:55:45.049Z,0.00
2017-11-07T05:57:38.533Z,0.00
2017-11-07T05:58:38.587Z,0.00
2017-11-07T06:00:31.605Z,0.00
2017-11-07T06:01:31.626Z,0.00
2017-11-07T06:03:24.617Z,0.00
2017-11-07T06:04:24.654Z,0.00
2017-11-07T06:06:17.626Z,0.00
2017-11-07T06:07:17.682Z,0.00
2017-11-07T06:09:10.686Z,0.00
2017-11-07T06:10:10.714Z,0.00
2017-11-07T06:12:03.692Z,0.00
2017-11-07T06:13:03.759Z,0.00
2017-11-07T06:14:56.748Z,0.00
2017-11-07T06:15:56.782Z,0.00
2017-11-07T06:17:49.763Z,0.00
2017-11-07T06:18:49.828Z,0.00
2017-11-07T06:20:42.812Z,0.00
2017-11-07T06:21:42.853Z,0.00
2017-11-07T06:23:35.841Z,0.00
2017-11-07T06:24:35.876Z,0.00
2017-11-07T06:26:28.851Z,0.00
2017-11-07T06:27:28.908Z,0.00
2017-11-07T06:29:21.904Z,5.63
2017-11-07T06:30:21.938Z,5.63
2017-11-07T06:32:14.911Z,5.63
2017-11-07T06:33:14.966Z,5.63
2017-11-07T06:35:07.974Z,5.63
2017-11-07T06:36:08.001Z,11.25
2017-11-07T06:38:00.995Z,11.25
2017-11-07T06:39:01.042Z,11.25
2017-11-07T06:40:54.033Z,16.88
2017-11-07T06:41:54.066Z,16.88
2017-11-07T06:43:47.062Z,16.88
2017-11-07T06:44:47.095Z,16.88
2017-11-07T06:46:40.076Z,22.50
2017-11-07T06:47:40.126Z,22.50
2017-11-07T06:49:33.135Z,28.13
2017-11-07T06:50:33.173Z,28.13
2017-11-07T06:52:26.141Z,33.75
2017-11-07T06:53:26.195Z,33.75
2017-11-07T06:55:19.187Z,33.75
2017-11-07T06:56:19.227Z,39.38
2017-11-07T06:58:12.724Z,45.00
2017-11-07T06:59:12.757Z,45.00
2017-11-07T07:01:05.765Z,50.63
2017-11-07T07:02:05.794Z,50.63
2017-11-07T07:03:58.790Z,56.25
2017-11-07T07:04:58.834Z,56.25
2017-11-07T07:06:51.801Z,56.25
2017-11-07T07:07:51.866Z,56.25
2017-11-07T07:09:44.859Z,56.25
2017-11-07T07:10:44.892Z,61.88
2017-11-07T07:12:37.875Z,61.88
2017-11-07T07:13:37.927Z,67.50
2017-11-07T07:15:30.962Z,73.13
2017-11-07T07:16:30.964Z,78.75
2017-11-07T07:18:23.935Z,84.38
2017-11-07T07:19:23.989Z,84.38
2017-11-07T07:21:17.006Z,78.75
2017-11-07T07:22:17.027Z,78.75
2017-11-07T07:24:10.021Z,84.38
2017-11-07T07:25:10.051Z,84.38
2017-11-07T07:27:03.030Z,95.63
2017-11-07T07:28:03.098Z,95.63
2017-11-07T07:29:56.080Z,95.63
2017-11-07T07:30:56.112Z,95.63
2017-11-07T07:32:49.096Z,90.00
2017-11-07T07:33:49.157Z,90.00
2017-11-07T07:35:42.149Z,95.63
2017-11-07T07:36:42.202Z,106.88
2017-11-07T07:38:35.165Z,101.25
2017-11-07T07:39:35.214Z,106.88
2017-11-07T07:41:28.214Z,106.88
2017-11-07T07:42:28.247Z,112.50
2017-11-07T07:44:21.243Z,123.75
2017-11-07T07:45:21.279Z,118.13
2017-11-07T07:47:14.255Z,123.75
2017-11-07T07:48:14.318Z,140.63
2017-11-07T07:50:07.306Z,140.63
2017-11-07T07:51:07.388Z,140.63
2017-11-07T07:53:00.319Z,129.38
2017-11-07T07:54:00.371Z,146.25
2017-11-07T07:55:53.382Z,151.88
2017-11-07T07:56:53.421Z,157.50
2017-11-07T07:58:46.384Z,151.88
2017-11-07T07:59:46.444Z,168.75
2017-11-07T08:01:39.436Z,157.50
2017-11-07T08:02:39.487Z,168.75
2017-11-07T08:04:32.467Z,168.75
2017-11-07T08:05:32.503Z,168.75
2017-11-07T08:07:25.480Z,180.00
2017-11-07T08:08:25.532Z,168.75
2017-11-07T08:10:18.536Z,180.00
2017-11-07T08:11:18.571Z,168.75
2017-11-07T08:13:11.588Z,185.63
2017-11-07T08:14:11.602Z,219.38
2017-11-07T08:16:04.599Z,236.25
2017-11-07T08:17:04.634Z,275.63
2017-11-07T08:18:57.612Z,236.25
2017-11-07T08:19:57.668Z,236.25
2017-11-07T08:21:50.665Z,225.00
2017-11-07T08:22:50.698Z,241.88
2017-11-07T08:24:43.749Z,236.25
2017-11-07T08:25:43.735Z,241.88
2017-11-07T08:27:36.709Z,219.38
2017-11-07T08:28:36.762Z,230.63
2017-11-07T08:30:29.759Z,275.63
2017-11-07T08:31:29.794Z,270.00
2017-11-07T08:33:22.802Z,225.00
2017-11-07T08:34:22.829Z,213.75
2017-11-07T08:36:15.872Z,208.13
2017-11-07T08:37:15.861Z,247.50
2017-11-07T08:39:08.838Z,258.75
2017-11-07T08:40:08.894Z,258.75
2017-11-07T08:42:01.895Z,275.63
2017-11-07T08:43:01.924Z,303.75
2017-11-07T08:44:54.924Z,258.75
2017-11-07T08:45:54.961Z,264.38
2017-11-07T08:47:47.943Z,236.25
2017-11-07T08:48:48.012Z,213.75
2017-11-07T08:50:40.992Z,241.88
2017-11-07T08:51:41.024Z,270.00
2017-11-07T08:53:34.006Z,292.50
2017-11-07T08:54:34.060Z,298.13
2017-11-07T08:56:27.069Z,315.00
2017-11-07T08:57:27.090Z,303.75
2017-11-07T08:59:20.090Z,270.00
2017-11-07T09:00:20.122Z,258.75
2017-11-07T09:02:13.097Z,236.25
2017-11-07T09:03:13.152Z,236.25
2017-11-07T09:05:06.190Z,275.63
2017-11-07T09:06:06.192Z,275.63
2017-11-07T09:07:59.196Z,286.88
2017-11-07T09:08:59.220Z,270.00
2017-11-07T09:10:52.217Z,270.00
2017-11-07T09:11:52.282Z,275.63
2017-11-07T09:13:45.264Z,264.38
2017-11-07T09:14:45.310Z,275.63
2017-11-07T09:16:38.291Z,264.38
2017-11-07T09:17:38.324Z,281.25
2017-11-07T09:19:31.321Z,270.00
2017-11-07T09:20:31.356Z,264.38
2017-11-07T09:22:24.339Z,309.38
2017-11-07T09:23:24.391Z,303.75
2017-11-07T09:25:17.430Z,309.38
2017-11-07T09:26:17.422Z,292.50
2017-11-07T09:28:10.400Z,270.00
2017-11-07T09:29:10.457Z,275.63
2017-11-07T09:31:03.455Z,303.75
2017-11-07T09:32:03.487Z,281.25
2017-11-07T09:33:56.498Z,286.88
2017-11-07T09:34:56.526Z,315.00
2017-11-07T09:36:49.566Z,281.25
2017-11-07T09:37:49.563Z,247.50
2017-11-07T09:39:42.565Z,281.25
2017-11-07T09:40:42.594Z,270.00
2017-11-07T09:42:35.569Z,264.38
2017-11-07T09:43:35.624Z,241.88
2017-11-07T09:45:28.647Z,247.50
2017-11-07T09:46:28.663Z,258.75
2017-11-07T09:48:21.639Z,309.38
2017-11-07T09:49:21.696Z,303.75
2017-11-07T09:51:14.697Z,286.88
2017-11-07T09:52:14.742Z,309.38
2017-11-07T09:54:07.706Z,337.50
2017-11-07T09:55:07.763Z,303.75
2017-11-07T09:57:00.806Z,309.38
2017-11-07T09:58:00.804Z,320.63
2017-11-07T09:59:53.811Z,281.25
2017-11-07T10:00:53.854Z,270.00
2017-11-07T10:02:46.829Z,315.00
2017-11-07T10:03:46.884Z,258.75
2017-11-07T10:05:39.883Z,315.00
2017-11-07T10:06:39.931Z,286.88
2017-11-07T10:08:32.914Z,303.75
2017-11-07T10:09:32.954Z,258.75
2017-11-07T10:11:25.956Z,309.38
2017-11-07T10:12:25.989Z,303.75
2017-11-07T10:14:18.972Z,275.63
2017-11-07T10:15:19.027Z,253.13
2017-11-07T10:17:12.028Z,298.13
2017-11-07T10:18:12.069Z,326.25
2017-11-07T10:20:05.062Z,281.25
2017-11-07T10:21:05.097Z,309.38
2017-11-07T10:22:58.078Z,298.13
2017-11-07T10:23:58.132Z,303.75
2017-11-07T10:25:51.134Z,298.13
2017-11-07T10:26:51.165Z,270.00
2017-11-07T10:28:44.147Z,264.38
2017-11-07T10:29:44.206Z,258.75
2017-11-07T10:31:37.206Z,281.25
2017-11-07T10:32:37.245Z,264.38
2017-11-07T10:34:30.218Z,382.50
2017-11-07T10:35:30.274Z,455.63
2017-11-07T10:37:23.274Z,365.63
2017-11-07T10:38:23.327Z,326.25
2017-11-07T10:40:16.307Z,354.38
2017-11-07T10:41:16.343Z,348.75
2017-11-07T10:43:09.325Z,371.25
2017-11-07T10:44:09.380Z,382.50
2017-11-07T10:46:02.402Z,326.25
2017-11-07T10:47:02.424Z,365.63
2017-11-07T10:48:55.401Z,382.50
2017-11-07T10:49:55.468Z,382.50
2017-11-07T10:51:48.456Z,343.13
2017-11-07T10:52:48.491Z,315.00
2017-11-07T10:54:41.472Z,264.38
2017-11-07T10:55:41.531Z,270.00
2017-11-07T10:57:34.550Z,292.50
2017-11-07T10:58:34.578Z,320.63
2017-11-07T11:00:27.572Z,382.50
2017-11-07T11:01:27.614Z,371.25
2017-11-07T11:03:20.586Z,348.75
2017-11-07T11:04:20.645Z,337.50
2017-11-07T11:06:13.643Z,281.25
2017-11-07T11:07:13.684Z,286.88
2017-11-07T11:09:06.692Z,286.88
2017-11-07T11:10:06.750Z,315.00
2017-11-07T11:11:59.751Z,331.88
2017-11-07T11:12:59.786Z,309.38
2017-11-07T11:14:52.765Z,270.00
2017-11-07T11:15:52.821Z,275.63
2017-11-07T11:17:45.890Z,253.13
2017-11-07T11:18:45.858Z,146.25
2017-11-07T11:20:38.864Z,112.50
2017-11-07T11:21:38.900Z,135.00
2017-11-07T11:23:31.877Z,129.38
2017-11-07T11:24:31.931Z,151.88
2017-11-07T11:26:24.938Z,180.00
2017-11-07T11:27:24.967Z,225.00
2017-11-07T11:29:17.953Z,225.00
2017-11-07T11:30:18.007Z,247.50
2017-11-07T11:32:11.014Z,219.38
2017-11-07T11:33:11.048Z,213.75
2017-11-07T11:35:04.030Z,191.25
2017-11-07T11:36:04.103Z,174.38
2017-11-07T11:37:57.084Z,185.63
2017-11-07T11:38:57.121Z,191.25
2017-11-07T11:40:50.122Z,196.88
2017-11-07T11:41:50.156Z,208.13
2017-11-07T11:43:43.135Z,236.25
2017-11-07T11:44:43.195Z,253.13
2017-11-07T11:46:36.265Z,281.25
2017-11-07T11:47:36.236Z,286.88
2017-11-07T11:49:29.210Z,309.38
2017-11-07T11:50:29.285Z,309.38
2017-11-07T11:52:22.269Z,337.50
2017-11-07T11:53:22.303Z,348.75
2017-11-07T11:55:15.284Z,348.75
2017-11-07T11:56:15.338Z,348.75
2017-11-07T11:58:08.345Z,348.75
2017-11-07T11:59:08.379Z,348.75
2017-11-07T12:01:01.380Z,348.75
2017-11-07T12:02:01.415Z,348.75
2017-11-07T12:03:54.404Z,337.50
2017-11-07T12:04:54.450Z,331.88
2017-11-07T12:06:47.447Z,315.00
2017-11-07T12:07:47.485Z,315.00
2017-11-07T12:09:40.484Z,320.63
2017-11-07T12:10:40.519Z,320.63
2017-11-07T12:12:33.541Z,331.88
2017-11-07T12:13:33.567Z,326.25
2017-11-07T12:15:26.572Z,326.25
2017-11-07T12:16:26.606Z,326.25
2017-11-07T12:18:19.618Z,337.50
2017-11-07T12:19:19.666Z,337.50
2017-11-07T12:21:12.653Z,331.88
2017-11-07T12:22:12.704Z,337.50
2017-11-07T12:24:05.670Z,337.50
2017-11-07T12:25:05.724Z,343.13
2017-11-07T12:26:58.724Z,343.13
2017-11-07T12:27:58.777Z,343.13
2017-11-07T12:29:51.745Z,343.13
2017-11-07T12:30:51.804Z,337.50
2017-11-07T12:32:44.804Z,337.50
2017-11-07T12:33:44.847Z,331.88
2017-11-07T12:35:37.845Z,309.38
2017-11-07T12:36:37.891Z,298.13
2017-11-07T12:38:31.398Z,292.50
2017-11-07T12:39:31.430Z,292.50
2017-11-07T12:41:24.431Z,298.13
2017-11-07T12:42:24.468Z,298.13
2017-11-07T12:44:17.454Z,292.50
2017-11-07T12:45:17.509Z,292.50
2017-11-07T12:47:10.516Z,286.88
2017-11-07T12:48:10.547Z,286.88
2017-11-07T12:50:03.528Z,281.25
2017-11-07T12:51:03.593Z,281.25
2017-11-07T12:52:56.585Z,281.25
2017-11-07T12:53:56.620Z,281.25
2017-11-07T12:55:49.620Z,270.00
2017-11-07T12:56:49.655Z,270.00
2017-11-07T12:58:42.635Z,275.63
2017-11-07T12:59:42.692Z,275.63
2017-11-07T13:01:35.726Z,270.00
2017-11-07T13:02:35.734Z,270.00
2017-11-07T13:04:28.714Z,264.38
2017-11-07T13:05:28.773Z,258.75
2017-11-07T13:07:21.772Z,258.75
2017-11-07T13:08:21.809Z,258.75
2017-11-07T13:10:14.798Z,258.75
2017-11-07T13:11:14.847Z,258.75
2017-11-07T13:13:07.852Z,253.13
2017-11-07T13:14:07.889Z,253.13
2017-11-07T13:16:00.899Z,247.50
2017-11-07T13:17:00.957Z,241.88
2017-11-07T13:18:53.946Z,241.88
2017-11-07T13:19:53.979Z,241.88
2017-11-07T13:21:46.981Z,247.50
2017-11-07T13:22:47.013Z,241.88
2017-11-07T13:24:39.991Z,241.88
2017-11-07T13:25:40.050Z,236.25
2017-11-07T13:27:33.059Z,230.63
2017-11-07T13:28:33.093Z,225.00
2017-11-07T13:30:26.074Z,219.38
2017-11-07T13:31:26.133Z,213.75
2017-11-07T13:33:19.154Z,202.50
2017-11-07T13:34:19.172Z,196.88
2017-11-07T13:36:12.179Z,196.88
2017-11-07T13:37:12.217Z,196.88
2017-11-07T13:39:05.740Z,196.88
2017-11-07T13:40:05.762Z,191.25
2017-11-07T13:41:58.778Z,180.00
2017-11-07T13:42:58.798Z,180.00
2017-11-07T13:44:51.797Z,174.38
2017-11-07T13:45:51.835Z,180.00
2017-11-07T13:47:44.857Z,180.00
2017-11-07T13:48:44.909Z,180.00
2017-11-07T13:50:37.861Z,180.00
2017-11-07T13:51:37.917Z,180.00
2017-11-07T13:53:30.920Z,180.00
2017-11-07T13:54:30.963Z,180.00
2017-11-07T13:56:23.956Z,168.75
2017-11-07T13:57:23.998Z,168.75
2017-11-07T13:59:16.989Z,168.75
2017-11-07T14:00:17.030Z,168.75
2017-11-07T14:02:10.036Z,168.75
2017-11-07T14:03:10.070Z,168.75
2017-11-07T14:05:03.059Z,163.13
2017-11-07T14:06:03.113Z,163.13
2017-11-07T14:07:56.119Z,168.75
2017-11-07T14:08:56.182Z,168.75
2017-11-07T14:10:49.136Z,168.75
2017-11-07T14:11:49.195Z,163.13
2017-11-07T14:13:42.197Z,157.50
2017-11-07T14:14:42.235Z,157.50
2017-11-07T14:16:35.249Z,151.88
2017-11-07T14:17:35.268Z,146.25
2017-11-07T14:19:28.254Z,135.00
2017-11-07T14:20:28.308Z,135.00
2017-11-07T14:22:21.314Z,123.75
2017-11-07T14:23:21.351Z,123.75
2017-11-07T14:25:14.333Z,118.13
2017-11-07T14:26:14.400Z,118.13
2017-11-07T14:28:07.398Z,112.50
2017-11-07T14:29:07.437Z,112.50
2017-11-07T14:31:00.415Z,106.88
2017-11-07T14:32:00.495Z,101.25
2017-11-07T14:33:53.475Z,101.25
2017-11-07T14:34:53.512Z,101.25
2017-11-07T14:36:46.513Z,95.63
2017-11-07T14:37:46.552Z,95.63
2017-11-07T14:39:39.535Z,95.63
2017-11-07T14:40:39.592Z,95.63
2017-11-07T14:42:32.592Z,90.00
2017-11-07T14:43:32.631Z,84.38
2017-11-07T14:45:25.608Z,78.75
2017-11-07T14:46:25.672Z,78.75
2017-11-07T14:48:18.671Z,73.13
2017-11-07T14:49:18.709Z,73.13
2017-11-07T14:51:11.691Z,73.13
2017-11-07T14:52:11.754Z,73.13
2017-11-07T14:54:04.756Z,67.50
2017-11-07T14:55:04.789Z,67.50
2017-11-07T14:56:57.805Z,67.50
2017-11-07T14:57:57.835Z,61.88
2017-11-07T14:59:51.324Z,61.88
2017-11-07T15:00:51.380Z,61.88
2017-11-07T15:02:44.383Z,56.25
2017-11-07T15:03:44.419Z,56.25
2017-11-07T15:05:37.401Z,56.25
2017-11-07T15:06:37.457Z,56.25
2017-11-07T15:08:30.457Z,56.25
2017-11-07T15:09:30.492Z,50.63
2017-11-07T15:11:23.477Z,50.63
2017-11-07T15:12:23.534Z,50.63
2017-11-07T15:14:16.530Z,45.00
2017-11-07T15:15:16.568Z,45.00
2017-11-07T15:17:09.568Z,39.38
2017-11-07T15:18:09.605Z,39.38
2017-11-07T15:20:02.598Z,33.75
2017-11-07T15:21:02.642Z,33.75
2017-11-07T15:22:55.683Z,28.13
2017-11-07T15:23:55.680Z,28.13
2017-11-07T15:25:48.658Z,28.13
2017-11-07T15:26:48.715Z,28.13
2017-11-07T15:28:41.717Z,22.50
2017-11-07T15:29:41.754Z,22.50
2017-11-07T15:31:34.740Z,22.50
2017-11-07T15:32:34.793Z,22.50
2017-11-07T15:34:27.794Z,22.50
2017-11-07T15:35:27.833Z,22.50
2017-11-07T15:37:20.831Z,16.88
2017-11-07T15:38:20.866Z,16.88
2017-11-07T15:40:13.853Z,16.88
2017-11-07T15:41:13.909Z,11.25
2017-11-07T15:43:06.908Z,11.25
2017-11-07T15:44:06.950Z,5.63
2017-11-07T15:45:59.932Z,5.63
2017-11-07T15:46:59.987Z,5.63
2017-11-07T15:48:52.989Z,5.63
2017-11-07T15:49:53.027Z,5.63
2017-11-07T15:51:46.011Z,5.63
2017-11-07T15:52:46.065Z,5.63
2017-11-07T15:54:39.066Z,5.63
2017-11-07T15:55:39.102Z,5.63
2017-11-07T15:57:32.110Z,0.00
2017-11-07T15:58:32.150Z,0.00
2017-11-07T16:00:25.133Z,0.00
2017-11-07T16:01:25.185Z,0.00
2017-11-07T16:03:18.187Z,0.00
2017-11-07T16:04:18.224Z,0.00
2017-11-07T16:06:11.208Z,0.00
2017-11-07T16:07:11.267Z,0.00
2017-11-07T16:09:04.277Z,0.00
2017-11-07T16:10:04.306Z,0.00
2017-11-07T16:11:57.283Z,0.00
2017-11-07T16:12:57.347Z,0.00
2017-11-07T16:14:50.343Z,0.00
2017-11-07T16:15:50.380Z,0.00
2017-11-07T16:17:43.381Z,0.00
2017-11-07T16:18:43.419Z,0.00
2017-11-07T16:20:36.403Z,0.00
2017-11-07T16:21:36.459Z,0.00
2017-11-07T16:23:29.487Z,0.00
2017-11-07T16:24:29.508Z,0.00
2017-11-07T16:26:22.494Z,0.00
2017-11-07T16:27:22.548Z,0.00
2017-11-07T16:29:15.562Z,0.00
2017-11-07T16:30:15.599Z,0.00
2017-11-07T16:32:08.581Z,0.00
2017-11-07T16:33:08.635Z,0.00
2017-11-07T16:35:01.640Z,0.00
2017-11-07T16:36:01.672Z,0.00
2017-11-07T16:37:54.682Z,0.00
2017-11-07T16:38:54.716Z,0.00
2017-11-07T16:40:47.700Z,0.00
2017-11-07T16:41:47.753Z,0.00
2017-11-07T16:43:40.794Z,0.00
2017-11-07T16:44:40.797Z,0.00
2017-11-07T16:46:33.780Z,0.00
2017-11-07T16:47:33.838Z,0.00
2017-11-07T16:49:26.845Z,0.00
2017-11-07T16:50:26.877Z,0.00
2017-11-07T16:52:19.856Z,0.00
2017-11-07T16:53:19.913Z,0.00
2017-11-07T16:55:12.947Z,0.00
2017-11-07T16:56:12.958Z,0.00
2017-11-07T16:58:05.964Z,0.00
2017-11-07T16:59:05.998Z,0.00
2017-11-07T17:00:58.978Z,0.00
2017-11-07T17:01:59.035Z,0.00
2017-11-07T17:03:52.036Z,0.00
2017-11-07T17:04:52.071Z,0.00
2017-11-07T17:06:45.056Z,0.00
2017-11-07T17:07:45.111Z,0.00
2017-11-07T17:09:38.112Z,0.00
2017-11-07T17:10:38.149Z,0.00
2017-11-07T17:12:31.133Z,0.00
2017-11-07T17:13:31.187Z,0.00
2017-11-07T17:15:24.188Z,0.00
2017-11-07T17:16:24.231Z,0.00
2017-11-07T17:18:17.234Z,0.00
2017-11-07T17:19:17.270Z,0.00
2017-11-07T17:21:10.253Z,0.00
2017-11-07T17:22:10.311Z,0.00
2017-11-07T17:24:03.315Z,0.00
2017-11-07T17:25:03.348Z,0.00
2017-11-07T17:26:56.333Z,0.00
2017-11-07T17:27:56.386Z,0.00
2017-11-07T17:29:49.385Z,0.00
2017-11-07T17:30:49.426Z,0.00
2017-11-07T17:32:42.401Z,0.00
2017-11-07T17:33:42.459Z,0.00
2017-11-07T17:35:35.473Z,0.00
2017-11-07T17:36:35.517Z,0.00
2017-11-07T17:38:28.499Z,0.00
2017-11-07T17:39:28.533Z,0.00
2017-11-07T17:41:21.518Z,0.00
2017-11-07T17:42:21.574Z,0.00
2017-11-07T17:44:14.571Z,0.00
2017-11-07T17:45:14.617Z,0.00
2017-11-07T17:47:07.588Z,0.00
2017-11-07T17:48:07.652Z,0.00
2017-11-07T17:50:00.658Z,0.00
2017-11-07T17:51:00.688Z,0.00
2017-11-07T17:52:53.705Z,0.00
2017-11-07T17:53:53.761Z,0.00
2017-11-07T17:55:46.763Z,0.00
2017-11-07T17:56:46.797Z,0.00
2017-11-07T17:58:39.803Z,0.00
2017-11-07T17:59:39.835Z,0.00
2017-11-07T18:01:32.854Z,0.00
2017-11-07T18:02:32.914Z,0.00
2017-11-07T18:04:26.469Z,0.00
2017-11-07T18:05:26.469Z,0.00
2017-11-07T18:07:19.442Z,0.00
2017-11-07T18:08:19.502Z,0.00
2017-11-07T18:10:12.458Z,0.00
2017-11-07T18:11:12.494Z,0.00
2017-11-07T18:13:05.500Z,0.00
2017-11-07T18:14:05.561Z,0.00
2017-11-07T18:15:58.744Z,0.00
2017-11-07T18:16:58.719Z,0.00
2017-11-07T18:18:51.606Z,0.00
2017-11-07T18:19:51.641Z,0.00
2017-11-07T18:21:44.620Z,0.00
2017-11-07T18:22:44.678Z,0.00
2017-11-07T18:24:37.679Z,0.00
2017-11-07T18:25:37.715Z,0.00
2017-11-07T18:27:30.701Z,0.00
2017-11-07T18:28:30.759Z,0.00
2017-11-07T18:30:23.765Z,0.00
2017-11-07T18:31:23.802Z,0.00
2017-11-07T18:33:16.781Z,0.00
2017-11-07T18:34:16.846Z,0.00
2017-11-07T18:36:09.836Z,0.00
2017-11-07T18:37:09.874Z,0.00
2017-11-07T18:39:02.877Z,0.00